.
WxDataArchive / Data Records for 2015-03-20
2015-03-19 March 2015 2015-03-21

Data Records for Friday, 20 March 2015

Time	Temp	Chill	HIndex	Humid	Dewpt	 Wind 	HiWind	WindDir	Rain 	Barom
-----	----	-----	------	-----	-----	------	------	-------	-----	-----
00:00	33.4	33.4	33.4	58	20.2	2	6	68	0.00	30.137 
00:05	33.4	33.4	33.4	57	19.8	2	6	90	0.00	30.137 
00:10	33.4	33.4	33.4	57	19.8	2	6	90	0.00	30.137 
00:15	33.2	33.2	33.2	56	19.2	3	6	90	0.00	30.128 
00:20	33.1	33.1	33.1	57	19.5	2	7	112	0.00	30.128 
00:25	32.9	32.9	32.9	57	19.4	2	5	112	0.00	30.128 
00:30	32.8	32.8	32.8	58	19.7	2	4	90	0.00	30.124 
00:35	32.7	32.7	32.7	58	19.6	2	5	90	0.00	30.124 
00:40	32.7	32.7	32.7	59	20.0	2	3	90	0.00	30.124 
00:45	32.5	32.5	32.5	61	20.6	1	4	90	0.00	30.115 
00:50	32.5	32.5	32.5	61	20.6	2	5	90	0.00	30.115 
00:55	32.5	32.5	32.5	62	20.9	1	3	90	0.00	30.115 
01:00	32.5	32.5	32.5	62	20.9	1	3	90	0.00	30.116 
01:05	32.4	32.4	32.4	62	20.9	1	4	90	0.00	30.116 
01:10	32.4	32.4	32.4	62	20.9	1	3	90	0.00	30.116 
01:15	32.4	32.4	32.4	59	19.7	2	6	90	0.00	30.113 
01:20	32.5	32.5	32.5	58	19.4	3	7	112	0.00	30.113 
01:25	32.5	32.5	32.5	57	19.0	3	6	90	0.00	30.113 
01:30	32.5	32.5	32.5	58	19.4	1	6	90	0.00	30.107 
01:35	32.5	32.5	32.5	59	19.8	2	5	90	0.00	30.107 
01:40	32.5	32.5	32.5	58	19.4	2	5	90	0.00	30.107 
01:45	32.4	32.4	32.4	59	19.7	1	3	90	0.00	30.112 
01:50	32.4	32.4	32.4	59	19.7	1	3	90	0.00	30.112 
01:55	32.4	32.4	32.4	59	19.7	1	2	90	0.00	30.112 
02:00	32.4	32.4	32.4	59	19.7	2	6	90	0.00	30.108 
02:05	32.4	32.4	32.4	60	20.1	1	3	90	0.00	30.108 
02:10	32.2	32.2	32.2	60	19.9	1	4	90	0.00	30.108 
02:15	32.2	32.2	32.2	60	19.9	2	5	90	0.00	30.102 
02:20	32.2	32.2	32.2	61	20.3	1	3	90	0.00	30.102 
02:25	32.2	32.2	32.2	61	20.3	1	3	90	0.00	30.102 
02:30	32.2	32.2	32.2	62	20.7	0	2	90	0.00	30.099 
02:35	32.2	32.2	32.2	61	20.3	1	3	90	0.00	30.099 
02:40	32.2	32.2	32.2	62	20.7	0	2	90	0.00	30.099 
02:45	32.2	32.2	32.2	62	20.7	1	3	90	0.00	30.094 
02:50	32.2	32.2	32.2	62	20.7	0	2	90	0.00	30.094 
02:55	32.2	32.2	32.2	63	21.0	0	2	90	0.00	30.094 
03:00	32.2	32.2	32.2	62	20.7	1	3	90	0.00	30.091 
03:05	32.1	32.1	32.1	62	20.6	1	3	90	0.00	30.091 
03:10	32.2	32.2	32.2	63	21.0	1	2	90	0.00	30.091 
03:15	32.2	32.2	32.2	62	20.7	0	1	90	0.00	30.091 
03:20	32.2	32.2	32.2	62	20.7	0	2	90	0.00	30.091 
03:25	32.1	32.1	32.1	62	20.6	1	3	90	0.00	30.091 
03:30	32.1	32.1	32.1	64	21.3	0	2	90	0.00	30.087 
03:35	32.1	32.1	32.1	64	21.3	0	1	90	0.00	30.087 
03:40	32.1	32.1	32.1	65	21.7	0	1	90	0.00	30.087 
03:45	32.1	32.1	32.1	66	22.0	0	0	---	0.00	30.080 
03:50	31.9	31.9	31.9	66	21.9	0	0	---	0.00	30.080 
03:55	31.9	31.9	31.9	68	22.6	0	0	---	0.00	30.080 
04:00	31.8	31.8	31.8	68	22.5	0	0	---	0.00	30.082 
04:05	31.8	31.8	31.8	69	22.8	0	0	---	0.00	30.082 
04:10	31.6	31.6	31.6	69	22.6	0	0	---	0.00	30.082 
04:15	31.6	31.6	31.6	69	22.6	0	0	---	0.00	30.076 
04:20	31.6	31.6	31.6	70	23.0	0	0	---	0.00	30.076 
04:25	31.5	31.5	31.5	71	23.2	0	0	---	0.00	30.076 
04:30	31.5	31.5	31.5	71	23.2	0	0	---	0.00	30.076 
04:35	31.5	31.5	31.5	72	23.5	0	0	---	0.00	30.076 
04:40	31.5	31.5	31.5	72	23.5	0	1	90	0.00	30.076 
04:45	31.5	31.5	31.5	71	23.2	0	2	90	0.00	30.076 
04:50	31.5	31.5	31.5	72	23.5	0	1	90	0.00	30.076 
04:55	31.5	31.5	31.5	72	23.5	0	0	---	0.00	30.076 
05:00	31.5	31.5	31.5	72	23.5	0	0	---	0.00	30.076 
05:05	31.5	31.5	31.5	72	23.5	0	0	---	0.00	30.076 
05:10	31.5	31.5	31.5	72	23.5	0	0	---	0.00	30.076 
05:15	31.5	31.5	31.5	72	23.5	0	0	---	0.00	30.085 
05:20	31.5	31.5	31.5	72	23.5	0	1	90	0.00	30.085 
05:25	31.5	31.5	31.5	72	23.5	0	0	---	0.00	30.085 
05:30	31.5	31.5	31.5	73	23.9	0	0	---	0.00	30.088 
05:35	31.5	31.5	31.5	73	23.9	0	0	---	0.00	30.088 
05:40	31.5	31.5	31.5	73	23.9	0	0	---	0.00	30.088 
05:45	31.3	31.3	31.3	73	23.7	0	1	90	0.00	30.080 
05:50	31.3	31.3	31.3	73	23.7	0	1	90	0.00	30.080 
05:55	31.3	31.3	31.3	74	24.0	0	1	90	0.00	30.080 
06:00	31.3	31.3	31.3	74	24.0	0	0	---	0.00	30.087 
06:05	31.3	31.3	31.3	74	24.0	0	0	---	0.00	30.087 
06:10	31.3	31.3	31.3	74	24.0	0	0	---	0.00	30.087 
06:15	31.3	31.3	31.3	74	24.0	0	0	---	0.00	30.087 
06:20	31.3	31.3	31.3	74	24.0	0	0	---	0.00	30.087 
06:25	31.3	31.3	31.3	74	24.0	0	0	---	0.00	30.087 
06:30	31.3	31.3	31.3	74	24.0	0	0	---	0.00	30.091 
06:35	31.3	31.3	31.3	74	24.0	0	0	---	0.00	30.091 
06:40	31.3	31.3	31.3	74	24.0	0	0	---	0.00	30.091 
06:45	31.3	31.3	31.3	74	24.0	0	0	---	0.00	30.090 
06:50	31.3	31.3	31.3	74	24.0	0	0	---	0.00	30.090 
06:55	31.5	31.5	31.5	74	24.2	0	0	---	0.00	30.090 
07:00	31.3	31.3	31.3	74	24.0	0	1	90	0.00	30.091 
07:05	31.3	31.3	31.3	73	23.7	0	1	90	0.00	30.091 
07:10	31.3	31.3	31.3	73	23.7	0	0	---	0.00	30.091 
07:15	31.3	31.3	31.3	74	24.0	0	0	---	0.00	30.097 
07:20	31.3	31.3	31.3	74	24.0	0	0	---	0.00	30.097 
07:25	31.2	31.2	31.2	74	23.9	0	2	90	0.00	30.097 
07:30	31.2	31.2	31.2	74	23.9	0	1	90	0.00	30.099 
07:35	31.2	31.2	31.2	74	23.9	0	0	---	0.00	30.099 
07:40	31.2	31.2	31.2	74	23.9	0	1	90	0.00	30.099 
07:45	31.2	31.2	31.2	75	24.2	0	0	---	0.00	30.097 
07:50	31.2	31.2	31.2	75	24.2	0	1	90	0.00	30.097 
07:55	31.2	31.2	31.2	75	24.2	0	1	90	0.00	30.097 
08:00	31.2	31.2	31.2	75	24.2	0	0	---	0.00	30.096 
08:05	31.2	31.2	31.2	75	24.2	0	1	90	0.00	30.096 
08:10	31.2	31.2	31.2	75	24.2	0	0	---	0.00	30.096 
08:15	31.2	31.2	31.2	76	24.5	0	0	---	0.00	30.107 
08:20	31.2	31.2	31.2	76	24.5	0	0	---	0.00	30.107 
08:25	31.3	31.3	31.3	76	24.6	0	0	---	0.00	30.107 
08:30	31.3	31.3	31.3	76	24.6	0	0	---	0.00	30.113 
08:35	31.3	31.3	31.3	76	24.6	0	0	---	0.00	30.113 
08:40	31.5	31.5	31.5	76	24.8	0	0	---	0.00	30.113 
08:45	31.5	31.5	31.5	76	24.8	0	0	---	0.00	30.112 
08:50	31.6	31.6	31.6	76	24.9	0	0	---	0.00	30.112 
08:55	31.8	31.8	31.8	77	25.4	0	0	---	0.00	30.112 
09:00	31.9	31.9	31.9	77	25.5	0	0	---	0.00	30.115 
09:05	31.9	31.9	31.9	77	25.5	0	0	---	0.00	30.115 
09:10	32.1	32.1	32.1	78	26.0	0	0	---	0.00	30.115 
09:15	32.2	32.2	32.2	79	26.4	0	0	---	0.00	30.115 
09:20	32.4	32.4	32.4	79	26.6	0	0	---	0.00	30.115 
09:25	32.4	32.4	32.4	79	26.6	0	0	---	0.00	30.115 
09:30	32.4	32.4	32.4	79	26.6	0	0	---	0.00	30.115 
09:35	32.4	32.4	32.4	80	26.9	0	0	---	0.00	30.115 
09:40	32.5	32.5	32.5	80	27.0	0	0	---	0.00	30.115 
09:45	32.5	32.5	32.5	80	27.0	0	0	---	0.00	30.118 
09:50	32.7	32.7	32.7	81	27.5	0	0	---	0.00	30.118 
09:55	32.9	32.9	32.9	81	27.7	0	0	---	0.00	30.118 
10:00	33.1	33.1	33.1	81	27.9	0	1	90	0.00	30.114 
10:05	33.1	33.1	33.1	81	27.9	0	0	---	0.00	30.114 
10:10	33.2	33.2	33.2	81	28.0	0	0	---	0.00	30.114 
10:15	33.4	33.4	33.4	81	28.2	0	0	---	0.00	30.121 
10:20	33.5	33.5	33.5	81	28.3	0	0	---	0.00	30.121 
10:25	33.5	33.5	33.5	81	28.3	0	0	---	0.00	30.121 
10:30	33.8	33.8	33.8	81	28.6	0	1	90	0.00	30.121 
10:35	34.0	34.0	34.0	82	29.1	0	1	90	0.00	30.121 
10:40	34.1	34.1	34.1	82	29.2	0	0	---	0.00	30.121 
10:45	34.4	34.4	34.4	82	29.5	0	0	---	0.00	30.127 
10:50	34.7	34.7	34.7	82	29.8	0	1	90	0.00	30.127 
10:55	34.7	34.7	34.7	81	29.5	0	1	90	0.00	30.127 
11:00	34.9	34.9	34.9	81	29.7	0	0	---	0.00	30.129 
11:05	35.0	35.0	35.0	81	29.8	0	1	90	0.00	30.129 
11:10	35.3	35.3	35.3	81	30.1	0	0	---	0.00	30.129 
11:15	35.6	35.6	35.6	81	30.4	0	1	90	0.00	30.129 
11:20	35.8	35.8	35.8	81	30.6	0	0	---	0.00	30.129 
11:25	36.0	36.0	36.0	81	30.7	0	0	---	0.01	30.129 
11:30	36.2	36.2	36.2	81	30.9	0	1	90	0.00	30.130 
11:35	36.3	36.3	36.3	81	31.0	0	1	90	0.00	30.130 
11:40	36.5	36.5	36.5	81	31.2	0	0	---	0.00	30.130 
11:45	36.6	36.6	36.6	82	31.6	0	1	90	0.00	30.127 
11:50	36.9	36.9	36.9	81	31.6	0	1	90	0.00	30.127 
11:55	37.2	37.2	37.2	82	32.2	0	2	90	0.00	30.127 
12:00	37.3	37.3	37.3	81	32.0	0	2	90	0.00	30.128 
12:05	37.5	37.5	37.5	81	32.2	0	2	90	0.00	30.128 
12:10	37.5	37.5	37.5	81	32.2	0	3	90	0.00	30.128 
12:15	37.6	37.6	37.6	82	32.6	0	1	90	0.00	30.129 
12:20	37.9	37.9	37.9	82	32.9	0	1	90	0.00	30.129 
12:25	38.2	38.2	38.2	82	33.2	0	1	90	0.00	30.129 
12:30	38.3	38.3	38.3	81	33.0	0	1	90	0.00	30.130 
12:35	38.5	38.5	38.5	81	33.2	0	3	90	0.00	30.130 
12:40	38.5	38.5	38.5	81	33.2	0	2	90	0.00	30.130 
12:45	38.8	38.8	38.8	82	33.8	0	0	---	0.00	30.127 
12:50	38.9	38.9	38.9	82	33.9	0	1	90	0.00	30.127 
12:55	39.2	39.2	39.2	82	34.2	0	1	90	0.00	30.127 
13:00	39.6	39.6	39.6	82	34.6	0	1	90	0.00	30.124 
13:05	39.9	39.9	39.9	81	34.6	0	1	90	0.00	30.124 
13:10	40.3	40.3	40.3	81	34.9	0	3	90	0.00	30.124 
13:15	40.9	40.9	40.9	82	35.8	0	2	90	0.00	30.109 
13:20	41.1	41.1	41.1	80	35.4	1	5	90	0.00	30.109 
13:25	41.5	41.5	41.5	80	35.8	1	3	90	0.00	30.109 
13:30	41.5	41.5	41.5	80	35.8	0	2	90	0.00	30.104 
13:35	41.2	41.2	41.2	80	35.5	1	3	90	0.00	30.104 
13:40	41.2	41.2	41.2	81	35.8	0	2	90	0.00	30.104 
13:45	41.2	41.2	41.2	80	35.5	0	3	90	0.00	30.106 
13:50	41.3	41.3	41.3	80	35.6	0	2	90	0.00	30.106 
13:55	41.3	41.3	41.3	80	35.6	0	2	90	0.00	30.106 
14:00	41.5	41.5	41.5	80	35.8	0	3	90	0.00	30.104 
14:05	41.8	41.8	41.8	80	36.1	0	2	90	0.00	30.104 
14:10	41.8	41.8	41.8	79	35.8	1	3	90	0.00	30.104 
14:15	41.8	41.8	41.8	78	35.5	0	2	90	0.00	30.105 
14:20	41.9	41.9	41.9	79	35.9	1	4	90	0.00	30.105 
14:25	41.9	41.9	41.9	78	35.5	0	1	90	0.00	30.105 
14:30	41.9	41.9	41.9	79	35.9	0	2	90	0.00	30.099 
14:35	41.9	41.9	41.9	78	35.5	0	2	90	0.00	30.099 
14:40	41.9	41.9	41.9	78	35.5	0	1	90	0.00	30.099 
14:45	42.1	42.1	42.1	78	35.7	0	1	90	0.00	30.092 
14:50	42.2	42.2	42.2	78	35.8	0	2	90	0.00	30.092 
14:55	42.2	42.2	42.2	78	35.8	0	2	90	0.00	30.092 
15:00	42.3	42.3	42.3	78	35.9	0	1	90	0.00	30.085 
15:05	42.3	42.3	42.3	78	35.9	0	2	90	0.00	30.085 
15:10	42.3	42.3	42.3	77	35.6	0	1	90	0.00	30.085 
15:15	42.5	42.5	42.5	77	35.8	0	2	90	0.00	30.083 
15:20	42.5	42.5	42.5	77	35.8	1	3	90	0.00	30.083 
15:25	42.5	42.5	42.5	77	35.8	1	2	90	0.00	30.083 
15:30	42.3	42.3	42.3	77	35.6	0	2	90	0.00	30.084 
15:35	42.3	42.3	42.3	77	35.6	1	4	90	0.00	30.084 
15:40	42.3	42.3	42.3	77	35.6	1	3	90	0.00	30.084 
15:45	42.5	42.5	42.5	77	35.8	0	2	90	0.00	30.089 
15:50	42.8	42.8	42.8	77	36.1	1	2	90	0.00	30.089 
15:55	43.1	43.1	43.1	76	36.1	1	3	248	0.00	30.089 
16:00	43.5	43.5	43.5	75	36.1	0	2	248	0.00	30.090 
16:05	43.8	43.8	43.8	75	36.4	0	4	248	0.00	30.090 
16:10	43.8	43.8	43.8	73	35.7	0	3	248	0.00	30.090 
16:15	43.8	43.8	43.8	73	35.7	1	3	248	0.00	30.082 
16:20	43.6	43.6	43.6	73	35.5	2	5	248	0.00	30.082 
16:25	43.5	43.5	43.5	72	35.1	2	5	248	0.00	30.082 
16:30	43.3	43.3	43.3	73	35.2	1	2	248	0.00	30.084 
16:35	43.5	43.5	43.5	73	35.4	1	4	248	0.00	30.084 
16:40	43.6	43.6	43.6	73	35.5	1	2	248	0.00	30.084 
16:45	43.8	43.8	43.8	73	35.7	1	2	248	0.00	30.076 
16:50	43.9	43.9	43.9	72	35.5	1	3	248	0.00	30.076 
16:55	44.1	44.1	44.1	72	35.7	0	2	248	0.00	30.076 
17:00	44.2	44.2	44.2	71	35.4	1	4	248	0.00	30.073 
17:05	44.2	44.2	44.2	71	35.4	1	4	248	0.00	30.073 
17:10	44.1	44.1	44.1	71	35.3	1	3	248	0.00	30.073 
17:15	44.1	44.1	44.1	71	35.3	0	3	248	0.00	30.077 
17:20	43.9	43.9	43.9	71	35.1	1	3	248	0.00	30.077 
17:25	43.9	43.9	43.9	72	35.5	0	2	248	0.00	30.077 
17:30	43.8	43.8	43.8	72	35.4	1	3	248	0.00	30.077 
17:35	43.8	43.8	43.8	72	35.4	1	3	248	0.00	30.077 
17:40	43.8	43.8	43.8	72	35.4	1	3	248	0.00	30.077 
17:45	43.6	43.6	43.6	73	35.5	2	5	248	0.00	30.075 
17:50	43.6	43.6	43.6	73	35.5	1	3	248	0.00	30.075 
17:55	43.6	43.6	43.6	73	35.5	1	2	248	0.00	30.075 
18:00	43.6	43.6	43.6	73	35.5	0	2	248	0.00	30.076 
18:05	43.6	43.6	43.6	74	35.9	1	2	248	0.00	30.076 
18:10	43.6	43.6	43.6	74	35.9	0	1	248	0.00	30.076 
18:15	43.6	43.6	43.6	74	35.9	0	2	248	0.00	30.075 
18:20	43.6	43.6	43.6	74	35.9	0	3	248	0.00	30.075 
18:25	43.6	43.6	43.6	74	35.9	0	2	248	0.00	30.075 
18:30	43.6	43.6	43.6	74	35.9	1	3	248	0.00	30.072 
18:35	43.6	43.6	43.6	75	36.2	0	2	248	0.00	30.072 
18:40	43.6	43.6	43.6	75	36.2	1	3	248	0.00	30.072 
18:45	43.6	43.6	43.6	75	36.2	0	1	248	0.00	30.070 
18:50	43.5	43.5	43.5	75	36.1	1	2	248	0.00	30.070 
18:55	43.3	43.3	43.3	75	35.9	1	3	248	0.00	30.070 
19:00	43.2	43.2	43.2	76	36.2	1	3	248	0.00	30.076 
19:05	43.2	43.2	43.2	76	36.2	1	3	248	0.00	30.076 
19:10	43.1	43.1	43.1	76	36.1	1	3	248	0.00	30.076 
19:15	42.9	42.9	42.9	76	35.9	1	4	248	0.00	30.075 
19:20	42.8	42.8	42.8	76	35.8	1	3	248	0.00	30.075 
19:25	42.6	42.6	42.6	76	35.6	1	2	248	0.00	30.075 
19:30	42.6	42.6	42.6	76	35.6	1	2	248	0.00	30.074 
19:35	42.5	42.5	42.5	75	35.1	1	3	248	0.00	30.074 
19:40	42.3	42.3	42.3	75	35.0	1	4	248	0.00	30.074 
19:45	42.3	42.3	42.3	75	35.0	0	2	248	0.00	30.079 
19:50	42.3	42.3	42.3	75	35.0	0	2	248	0.00	30.079 
19:55	42.3	42.3	42.3	75	35.0	0	1	248	0.00	30.079 
20:00	42.3	42.3	42.3	76	35.3	0	2	248	0.00	30.072 
20:05	42.3	42.3	42.3	76	35.3	0	2	248	0.00	30.072 
20:10	42.3	42.3	42.3	76	35.3	0	2	248	0.00	30.072 
20:15	42.3	42.3	42.3	76	35.3	1	2	248	0.00	30.072 
20:20	42.5	42.5	42.5	76	35.5	0	1	248	0.00	30.072 
20:25	42.5	42.5	42.5	76	35.5	0	0	---	0.00	30.072 
20:30	42.5	42.5	42.5	76	35.5	0	0	---	0.00	30.075 
20:35	42.3	42.3	42.3	77	35.6	0	1	248	0.00	30.075 
20:40	42.5	42.5	42.5	77	35.8	0	2	248	0.00	30.075 
20:45	42.5	42.5	42.5	77	35.8	0	1	248	0.00	30.076 
20:50	42.5	42.5	42.5	77	35.8	0	2	248	0.00	30.076 
20:55	42.5	42.5	42.5	77	35.8	0	2	248	0.00	30.076 
21:00	42.5	42.5	42.5	77	35.8	0	2	248	0.00	30.077 
21:05	42.6	42.6	42.6	77	35.9	0	3	248	0.00	30.077 
21:10	42.6	42.6	42.6	77	35.9	0	2	248	0.00	30.077 
21:15	42.6	42.6	42.6	77	35.9	0	1	248	0.00	30.081 
21:20	42.6	42.6	42.6	77	35.9	0	2	248	0.00	30.081 
21:25	42.6	42.6	42.6	77	35.9	0	2	248	0.00	30.081 
21:30	42.6	42.6	42.6	77	35.9	0	0	---	0.00	30.089 
21:35	42.6	42.6	42.6	78	36.2	0	1	248	0.00	30.089 
21:40	42.6	42.6	42.6	78	36.2	0	1	248	0.00	30.089 
21:45	42.6	42.6	42.6	78	36.2	0	1	248	0.00	30.082 
21:50	42.6	42.6	42.6	78	36.2	0	2	248	0.00	30.082 
21:55	42.6	42.6	42.6	78	36.2	0	2	248	0.00	30.082 
22:00	42.8	42.8	42.8	78	36.4	0	1	248	0.00	30.091 
22:05	42.8	42.8	42.8	78	36.4	0	1	248	0.00	30.091 
22:10	42.8	42.8	42.8	78	36.4	0	2	248	0.00	30.091 
22:15	42.8	42.8	42.8	78	36.4	0	1	248	0.00	30.079 
22:20	42.8	42.8	42.8	78	36.4	0	2	248	0.00	30.079 
22:25	42.9	42.9	42.9	78	36.5	0	2	248	0.00	30.079 
22:30	42.9	42.9	42.9	78	36.5	0	2	248	0.00	30.083 
22:35	42.9	42.9	42.9	78	36.5	0	3	248	0.00	30.083 
22:40	42.9	42.9	42.9	78	36.5	0	2	248	0.00	30.083 
22:45	42.9	42.9	42.9	78	36.5	0	3	248	0.00	30.080 
22:50	43.1	43.1	43.1	78	36.7	1	3	248	0.00	30.080 
22:55	43.1	43.1	43.1	78	36.7	1	3	248	0.00	30.080 
23:00	43.2	43.2	43.2	78	36.8	0	2	248	0.00	30.085 
23:05	43.2	43.2	43.2	78	36.8	1	3	248	0.00	30.085 
23:10	43.2	43.2	43.2	78	36.8	1	4	248	0.00	30.085 
23:15	43.2	43.2	43.2	78	36.8	0	2	248	0.00	30.074 
23:20	43.2	43.2	43.2	78	36.8	1	3	248	0.00	30.074 
23:25	43.2	43.2	43.2	78	36.8	0	2	248	0.00	30.074 
23:30	43.2	43.2	43.2	78	36.8	0	4	248	0.00	30.070 
23:35	43.2	43.2	43.2	78	36.8	1	2	248	0.00	30.070 
23:40	43.2	43.2	43.2	78	36.8	0	2	248	0.00	30.070 
23:45	43.2	43.2	43.2	78	36.8	0	2	248	0.00	30.069 
23:50	43.2	43.2	43.2	78	36.8	0	2	248	0.00	30.069 
23:55	43.2	43.2	43.2	78	36.8	0	1	248	0.00	30.069 

CoCoRaHS
IN-AL-39
A2 Web Hosting
Creative Commons License
GoDaddy
search engine by freefind advanced

loaded 2018-11-20 14:25:37 • last modified 2010-11-18 10:43:29
Privacy PolicyDisclaimer
• wx.awcolley.com is powered by PmWiki v.2002016 •
• all content (unless otherwise noted) © 2018 A W Colley